Time;durP1;ratioP1;P1;durP2;ratioP2;P2;SDS_P1;SDS_P2;PMS_P1;PMS_P2;Temp;Humidity;BMP_temperature;BMP_pressure;BME280_temperature;BME280_humidity;BME280_pressure;Samples;Min_cycle;Max_cycle;Signal;HPM_P1;HPM_P2
2024/01/06 00:00:36;;;;;;;1.98;0.90;;;8.50;99.90;;;8.49;100.00;99697.97;5226827;28;20053;-47
2024/01/06 00:03:09;;;;;;;3.33;1.00;;;8.50;99.90;;;8.49;100.00;99704.03;5228784;28;20045;-47
2024/01/06 00:05:41;;;;;;;1.23;0.90;;;8.50;99.90;;;8.50;100.00;99707.53;5232239;28;20143;-47
2024/01/06 00:08:14;;;;;;;3.85;1.70;;;8.50;99.90;;;8.50;100.00;99700.59;5231891;28;20504;-47
2024/01/06 00:10:47;;;;;;;4.07;2.42;;;8.50;99.90;;;8.51;100.00;99709.28;5234351;28;20049;-46
2024/01/06 00:13:20;;;;;;;1.65;1.50;;;8.50;99.90;;;8.49;100.00;99706.66;5226000;28;20511;-47
2024/01/06 00:15:52;;;;;;;1.75;1.33;;;8.50;99.90;;;8.49;100.00;99714.44;5229582;28;20063;-47
2024/01/06 00:18:24;;;;;;;1.65;1.50;;;8.50;99.90;;;8.48;100.00;99706.63;5237252;28;20048;-46
2024/01/06 00:20:57;;;;;;;1.25;1.13;;;8.50;99.90;;;8.48;100.00;99712.69;5237522;28;20044;-47
2024/01/06 00:23:29;;;;;;;0.88;0.82;;;8.50;99.90;;;8.47;100.00;99708.31;5238840;28;20102;-47
2024/01/06 00:26:03;;;;;;;1.27;0.95;;;8.50;99.90;;;8.50;100.00;99710.13;5236902;28;20049;-47
2024/01/06 00:28:36;;;;;;;2.67;1.58;;;8.50;99.90;;;8.51;100.00;99711.88;5245108;28;20060;-48
2024/01/06 00:31:08;;;;;;;1.00;0.95;;;8.50;99.90;;;8.53;100.00;99716.25;5243959;28;20068;-46
2024/01/06 00:33:41;;;;;;;1.17;1.08;;;8.50;99.90;;;8.52;100.00;99708.44;5238559;28;20574;-46
2024/01/06 00:36:13;;;;;;;2.63;1.55;;;8.50;99.90;;;8.51;100.00;99717.06;5239236;28;20052;-47
2024/01/06 00:38:46;;;;;;;2.97;1.42;;;8.50;99.90;;;8.51;100.00;99714.47;5228513;28;20106;-48
2024/01/06 00:41:19;;;;;;;2.58;1.50;;;8.50;99.90;;;8.54;100.00;99714.53;5235430;28;20044;-46
2024/01/06 00:43:52;;;;;;;6.00;1.67;;;8.50;99.90;;;8.53;100.00;99720.56;5235447;28;20040;-47
2024/01/06 00:46:24;;;;;;;2.85;1.60;;;8.60;99.90;;;8.52;100.00;99721.41;5232251;28;20582;-48
2024/01/06 00:48:56;;;;;;;3.28;1.30;;;8.60;99.90;;;8.52;100.00;99713.63;5240122;28;20064;-47
2024/01/06 00:51:29;;;;;;;3.92;1.25;;;8.50;99.90;;;8.52;100.00;99718.81;5242725;28;20052;-47
2024/01/06 00:54:01;;;;;;;5.30;1.30;;;8.50;99.90;;;8.54;100.00;99717.13;5234126;28;20056;-48
2024/01/06 00:56:35;;;;;;;2.92;1.42;;;8.50;99.90;;;8.53;100.00;99720.56;5238083;28;20040;-47
2024/01/06 00:59:07;;;;;;;3.15;1.60;;;8.50;99.90;;;8.52;100.00;99721.41;5231454;28;20040;-47
2024/01/06 01:01:40;;;;;;;1.88;1.50;;;8.60;99.90;;;8.49;100.00;99708.38;5241756;28;20048;-45
2024/01/06 01:04:12;;;;;;;3.17;1.88;;;8.60;99.90;;;8.49;100.00;99718.75;5233796;28;20041;-47
2024/01/06 01:06:44;;;;;;;2.45;1.75;;;8.60;99.90;;;8.48;100.00;99715.28;5235453;28;20048;-48
2024/01/06 01:09:17;;;;;;;3.40;1.70;;;8.50;99.90;;;8.45;100.00;99715.19;5237524;28;20059;-47
2024/01/06 01:11:51;;;;;;;3.08;2.00;;;8.50;99.90;;;8.41;100.00;99711.66;5240985;28;20511;-46
2024/01/06 01:14:23;;;;;;;3.60;1.63;;;8.50;99.90;;;8.40;100.00;99725.44;5242616;28;20056;-47
2024/01/06 01:16:55;;;;;;;3.08;1.38;;;8.50;99.90;;;8.38;100.00;99721.94;5234656;28;20048;-46
2024/01/06 01:19:28;;;;;;;1.83;1.40;;;8.40;99.90;;;8.36;100.00;99722.75;5236172;28;20037;-47
2024/01/06 01:22:00;;;;;;;2.88;1.95;;;8.40;99.90;;;8.35;100.00;99724.47;5234085;28;20037;-47
2024/01/06 01:24:32;;;;;;;6.90;1.60;;;8.40;99.90;;;8.32;100.00;99729.53;5233353;28;20514;-47
2024/01/06 01:27:06;;;;;;;3.35;1.50;;;8.40;99.90;;;8.31;100.00;99740.75;5238589;28;20040;-47
2024/01/06 01:29:39;;;;;;;2.25;1.15;;;8.40;99.90;;;8.29;100.00;99736.38;5233239;28;20042;-47
2024/01/06 01:32:11;;;;;;;3.63;1.77;;;8.30;99.90;;;8.26;100.00;99737.16;5237940;28;20070;-48
2024/01/06 01:34:44;;;;;;;3.67;1.80;;;8.30;99.90;;;8.24;100.00;99736.22;5232985;28;20045;-47
2024/01/06 01:37:17;;;;;;;2.78;1.45;;;8.30;99.90;;;8.24;100.00;99737.97;5231378;28;20067;-48
2024/01/06 01:39:49;;;;;;;6.35;2.20;;;8.30;99.90;;;8.22;100.00;99743.13;5236244;28;20412;-47
2024/01/06 01:42:23;;;;;;;3.00;1.80;;;8.30;99.90;;;8.21;100.00;99737.84;5233493;28;20049;-47
2024/01/06 01:44:55;;;;;;;3.15;1.85;;;8.30;99.90;;;8.19;100.00;99743.00;5241068;28;20663;-49
2024/01/06 01:47:28;;;;;;;5.63;2.22;;;8.30;99.90;;;8.19;100.00;99740.41;5231774;28;20048;-47
2024/01/06 01:50:01;;;;;;;5.07;2.05;;;8.20;99.90;;;8.19;100.00;99745.59;5230924;28;20058;-48
2024/01/06 01:52:35;;;;;;;4.97;2.20;;;8.20;99.90;;;8.20;100.00;99755.16;5239850;28;20419;-47
2024/01/06 01:55:08;;;;;;;3.60;1.88;;;8.20;99.90;;;8.20;100.00;99757.75;5234074;28;20053;-46
2024/01/06 01:57:42;;;;;;;3.05;1.80;;;8.20;99.90;;;8.19;100.00;99757.72;5240514;28;20052;-47
2024/01/06 02:00:15;;;;;;;7.15;1.85;;;8.20;99.90;;;8.18;100.00;99762.03;5235723;28;20040;-46
2024/01/06 02:02:48;;;;;;;3.97;1.92;;;8.20;99.90;;;8.16;100.00;99762.00;5236605;28;20072;-47
2024/01/06 02:05:20;;;;;;;4.93;2.00;;;8.20;99.90;;;8.17;100.00;99757.69;5227614;28;20049;-48
2024/01/06 02:07:53;;;;;;;3.92;1.90;;;8.20;99.90;;;8.17;100.00;99752.50;5240243;28;20049;-47
2024/01/06 02:10:25;;;;;;;4.85;2.47;;;8.20;99.90;;;8.18;100.00;99761.16;5226707;28;20052;-47
2024/01/06 02:13:08;;;;;;;3.80;1.90;;;8.20;99.90;;;8.16;100.00;99755.91;5229673;28;20052;-46
2024/01/06 02:15:41;;;;;;;3.00;1.50;;;8.20;99.90;;;8.16;100.00;99759.41;5242891;28;20612;-47
2024/01/06 02:18:13;;;;;;;5.00;1.70;;;8.20;99.90;;;8.18;100.00;99769.81;5249675;28;20037;-48
2024/01/06 02:20:47;;;;;;;2.67;1.42;;;8.20;99.90;;;8.17;100.00;99762.88;5228263;28;20503;-47
2024/01/06 02:23:21;;;;;;;2.65;1.52;;;8.20;99.90;;;8.16;100.00;99766.31;5237177;28;20048;-47
2024/01/06 02:25:53;;;;;;;2.35;1.60;;;8.20;99.90;;;8.16;100.00;99777.56;5241248;28;20156;-49
2024/01/06 02:28:26;;;;;;;2.60;1.50;;;8.20;99.90;;;8.19;100.00;99760.31;5232740;28;20072;-47
2024/01/06 02:30:58;;;;;;;3.58;1.45;;;8.20;99.90;;;8.19;100.00;99773.28;5233995;28;20529;-47
2024/01/06 02:33:30;;;;;;;3.92;1.50;;;8.20;99.90;;;8.18;100.00;99775.00;5232804;28;20044;-47
2024/01/06 02:36:03;;;;;;;3.00;1.85;;;8.20;99.90;;;8.15;100.00;99772.34;5240419;28;20063;-47
2024/01/06 02:38:37;;;;;;;2.88;1.65;;;8.20;99.90;;;8.15;100.00;99775.81;5236547;28;20041;-47
2024/01/06 02:41:09;;;;;;;3.22;1.75;;;8.20;99.90;;;8.16;100.00;99780.16;5226905;28;20048;-48
2024/01/06 02:43:42;;;;;;;3.90;2.08;;;8.20;99.90;;;8.19;100.00;99783.66;5236630;28;20037;-47
2024/01/06 02:46:14;;;;;;;4.00;2.17;;;8.20;99.90;;;8.18;100.00;99785.38;5241226;28;20040;-47
2024/01/06 02:48:47;;;;;;;5.70;1.92;;;8.20;99.90;;;8.20;100.00;99788.03;5241755;28;20434;-47
2024/01/06 02:51:19;;;;;;;6.18;2.42;;;8.20;99.90;;;8.19;100.00;99794.94;5230589;28;20033;-47
2024/01/06 02:53:53;;;;;;;6.97;2.35;;;8.20;99.90;;;8.22;100.00;99799.34;5228970;28;20056;-50
2024/01/06 02:56:25;;;;;;;4.95;2.13;;;8.20;99.90;;;8.22;100.00;99804.53;5236212;28;20052;-47
2024/01/06 02:58:57;;;;;;;5.10;2.25;;;8.20;99.90;;;8.21;100.00;99811.41;5223770;28;20048;-48
2024/01/06 03:01:32;;;;;;;5.25;2.80;;;8.20;99.90;;;8.20;100.00;99814.84;5255945;28;20502;-47
2024/01/06 03:04:05;;;;;;;5.95;2.60;;;8.20;99.90;;;8.19;100.00;99815.69;5250528;28;20049;-48
2024/01/06 03:06:37;;;;;;;6.72;2.40;;;8.20;99.90;;;8.20;100.00;99824.38;5247052;28;20097;-47
2024/01/06 03:09:11;;;;;;;8.25;2.72;;;8.20;99.90;;;8.19;100.00;99828.69;5245457;28;20040;-47
2024/01/06 03:11:44;;;;;;;8.85;2.70;;;8.20;99.90;;;8.20;100.00;99824.38;5251696;28;20522;-47
2024/01/06 03:14:16;;;;;;;7.82;3.08;;;8.20;99.90;;;8.18;100.00;99823.44;5251189;28;20414;-47
2024/01/06 03:16:49;;;;;;;8.13;3.38;;;8.20;99.90;;;8.17;100.00;99825.16;5248307;28;20051;-46
2024/01/06 03:19:25;;;;;;;8.50;3.22;;;8.20;99.90;;;8.16;100.00;99828.59;5250913;28;20048;-47
2024/01/06 03:21:58;;;;;;;7.50;3.35;;;8.20;99.90;;;8.16;100.00;99833.78;5246822;28;20056;-46
2024/01/06 03:24:32;;;;;;;9.63;4.10;;;8.20;99.90;;;8.14;100.00;99835.44;5246143;28;20089;-46
2024/01/06 03:27:05;;;;;;;10.38;3.40;;;8.20;99.90;;;8.16;100.00;99839.00;5247464;28;20060;-47
2024/01/06 03:29:37;;;;;;;8.40;3.67;;;8.20;99.90;;;8.16;100.00;99839.00;5253355;28;20262;-45
2024/01/06 03:32:09;;;;;;;9.05;3.05;;;8.20;99.90;;;8.15;100.00;99839.84;5250372;28;20055;-47
2024/01/06 03:34:42;;;;;;;8.65;3.33;;;8.20;99.90;;;8.14;100.00;99841.50;5248963;28;20040;-47
2024/01/06 03:37:15;;;;;;;7.47;2.72;;;8.20;99.90;;;8.15;100.00;99840.72;5261036;28;20502;-47
2024/01/06 03:39:48;;;;;;;9.75;3.30;;;8.20;99.90;;;8.14;100.00;99835.44;5258204;28;20044;-47
2024/01/06 03:42:21;;;;;;;9.82;3.30;;;8.20;99.90;;;8.15;100.00;99826.84;5253197;28;20044;-48
2024/01/06 03:44:53;;;;;;;12.57;3.97;;;8.20;99.90;;;8.15;100.00;99832.91;5252236;28;20453;-48
2024/01/06 03:47:26;;;;;;;9.20;3.40;;;8.20;99.90;;;8.14;100.00;99831.13;5250521;28;20055;-46
2024/01/06 03:49:58;;;;;;;10.13;3.35;;;8.20;99.90;;;8.13;100.00;99834.56;5263848;28;20076;-48
2024/01/06 03:52:31;;;;;;;7.00;3.28;;;8.10;99.90;;;8.11;100.00;99835.38;5258528;28;20511;-48
2024/01/06 03:55:06;;;;;;;11.82;3.53;;;8.20;99.90;;;8.10;100.00;99833.63;5253887;28;20059;-47
2024/01/06 03:57:38;;;;;;;9.93;3.53;;;8.10;99.90;;;8.10;100.00;99833.63;5255151;28;20044;-47
2024/01/06 04:00:12;;;;;;;9.73;3.05;;;8.10;99.90;;;8.09;100.00;99842.25;5266777;28;20110;-46
2024/01/06 04:02:44;;;;;;;6.95;3.40;;;8.10;99.90;;;8.07;100.00;99844.78;5256782;28;20378;-47
2024/01/06 04:05:17;;;;;;;10.73;3.53;;;8.10;99.90;;;8.06;100.00;99853.41;5250601;28;20044;-47
2024/01/06 04:07:49;;;;;;;11.80;4.03;;;8.10;99.90;;;8.06;100.00;99857.72;5257604;28;20068;-50
2024/01/06 04:10:23;;;;;;;10.30;3.83;;;8.10;99.90;;;8.06;100.00;99853.41;5250113;28;20070;-47
2024/01/06 04:12:55;;;;;;;11.23;4.03;;;8.10;99.90;;;8.07;100.00;99854.28;5257427;28;20052;-48
2024/01/06 04:15:27;;;;;;;8.02;3.65;;;8.10;99.90;;;8.05;100.00;99851.63;5254888;28;20040;-47
2024/01/06 04:18:03;;;;;;;7.43;3.08;;;8.10;99.90;;;8.09;100.00;99855.22;5256498;28;20052;-47
2024/01/06 04:20:36;;;;;;;10.27;3.95;;;8.10;99.90;;;8.11;100.00;99856.13;5248346;28;20064;-49
2024/01/06 04:23:09;;;;;;;12.45;3.88;;;8.10;99.90;;;8.11;100.00;99856.13;5261807;28;20140;-47
2024/01/06 04:25:42;;;;;;;7.07;3.22;;;8.20;99.90;;;8.14;100.00;99858.81;5254579;28;20060;-47
2024/01/06 04:28:15;;;;;;;13.05;3.70;;;8.20;99.90;;;8.14;100.00;99853.63;5251992;28;20040;-47
2024/01/06 04:30:47;;;;;;;10.25;3.63;;;8.10;99.90;;;8.13;100.00;99860.53;5254937;28;20415;-46
2024/01/06 04:33:19;;;;;;;10.43;3.72;;;8.20;99.90;;;8.12;100.00;99860.50;5249172;28;20541;-47
2024/01/06 04:35:52;;;;;;;12.15;3.85;;;8.10;99.90;;;8.12;100.00;99863.09;5255075;28;20415;-47
2024/01/06 04:38:24;;;;;;;11.48;3.95;;;8.20;99.90;;;8.12;100.00;99869.16;5251804;28;20047;-47
2024/01/06 04:40:58;;;;;;;9.60;3.65;;;8.10;99.90;;;8.13;100.00;99868.31;5257076;28;20549;-47
2024/01/06 04:43:30;;;;;;;8.18;3.83;;;8.20;99.90;;;8.15;100.00;99876.16;5258059;28;20075;-47
2024/01/06 04:46:03;;;;;;;13.90;3.78;;;8.20;99.90;;;8.15;100.00;99866.66;5260337;28;20529;-48
2024/01/06 04:48:35;;;;;;;9.13;4.25;;;8.20;99.90;;;8.15;100.00;99868.38;5250862;28;20056;-47
2024/01/06 04:51:09;;;;;;;10.65;4.22;;;8.20;99.90;;;8.15;100.00;99863.19;5254361;28;20470;-46
2024/01/06 04:53:42;;;;;;;12.88;3.88;;;8.20;99.90;;;8.16;100.00;99860.63;5256780;28;20052;-47
2024/01/06 04:56:16;;;;;;;12.55;4.00;;;8.20;99.90;;;8.16;100.00;99868.41;5265108;28;20058;-47
2024/01/06 04:58:48;;;;;;;10.48;4.10;;;8.20;99.90;;;8.20;100.00;99871.09;5251926;28;20445;-48
2024/01/06 05:01:21;;;;;;;17.27;4.25;;;8.20;99.90;;;8.21;100.00;99871.13;5263260;28;20047;-46
2024/01/06 05:03:53;;;;;;;9.73;3.65;;;8.20;99.90;;;8.21;100.00;99876.31;5252099;28;20052;-46
2024/01/06 05:06:26;;;;;;;10.75;4.68;;;8.20;99.90;;;8.22;100.00;99885.91;5255005;28;20059;-48
2024/01/06 05:08:58;;;;;;;14.10;4.85;;;8.30;99.90;;;8.22;100.00;99875.50;5250395;28;20094;-46
2024/01/06 05:11:32;;;;;;;13.18;4.72;;;8.20;99.90;;;8.22;100.00;99870.31;5256587;28;20414;-47
2024/01/06 05:14:04;;;;;;;19.92;6.00;;;8.30;99.90;;;8.23;100.00;99879.88;5251298;28;20632;-47
2024/01/06 05:16:36;;;;;;;13.93;5.40;;;8.30;99.90;;;8.23;100.00;99868.59;5255502;28;20141;-47
2024/01/06 05:19:09;;;;;;;14.18;5.50;;;8.30;99.90;;;8.23;100.00;99877.28;5245830;28;20040;-47
2024/01/06 05:21:42;;;;;;;11.48;4.35;;;8.30;99.90;;;8.22;100.00;99885.91;5255089;28;20060;-46
2024/01/06 05:24:14;;;;;;;15.27;4.50;;;8.20;99.90;;;8.22;100.00;99880.72;5249191;28;20048;-47
2024/01/06 05:26:48;;;;;;;15.77;6.22;;;8.30;99.90;;;8.22;100.00;99885.91;5259010;28;20048;-46
2024/01/06 05:29:20;;;;;;;14.93;5.47;;;8.30;99.90;;;8.23;100.00;99884.19;5270248;28;20059;-48
2024/01/06 05:31:53;;;;;;;16.60;5.53;;;8.20;99.90;;;8.23;100.00;99894.56;5252824;28;20048;-46
2024/01/06 05:34:25;;;;;;;12.20;5.30;;;8.20;99.90;;;8.23;100.00;99882.47;5246109;28;20048;-46
2024/01/06 05:36:57;;;;;;;13.77;5.38;;;8.20;99.90;;;8.24;100.00;99891.13;5258474;28;20075;-47
2024/01/06 05:39:30;;;;;;;16.27;7.00;;;8.20;99.90;;;8.23;100.00;99890.25;5253394;28;20395;-47
2024/01/06 05:42:03;;;;;;;13.95;5.57;;;8.30;99.90;;;8.23;100.00;99887.66;5251833;28;20044;-46
2024/01/06 05:44:38;;;;;;;15.32;5.80;;;8.20;99.90;;;8.23;100.00;99889.38;5260139;28;20055;-47
2024/01/06 05:47:10;;;;;;;15.25;5.22;;;8.20;99.90;;;8.24;100.00;99896.31;5251744;28;20071;-47
2024/01/06 05:49:44;;;;;;;17.85;6.10;;;8.30;99.90;;;8.24;100.00;99896.31;5254364;28;20060;-47
2024/01/06 05:52:17;;;;;;;16.77;5.82;;;8.30;99.90;;;8.21;100.00;99901.41;5254018;28;20047;-47
2024/01/06 05:54:49;;;;;;;21.77;7.13;;;8.20;99.90;;;8.15;100.00;99904.72;5255211;28;20055;-47
2024/01/06 05:57:23;;;;;;;19.10;4.88;;;8.20;99.90;;;8.04;100.00;99904.38;5247592;28;20426;-47
2024/01/06 05:59:55;;;;;;;19.10;7.10;;;8.10;99.90;;;7.97;100.00;99909.34;5248980;28;20051;-47
2024/01/06 06:02:27;;;;;;;15.60;5.70;;;8.10;99.90;;;7.87;100.00;99919.41;5251040;28;20045;-47
2024/01/06 06:05:00;;;;;;;18.52;6.03;;;8.00;99.90;;;7.81;100.00;99918.34;5247461;28;20059;-47
2024/01/06 06:07:32;;;;;;;14.70;6.32;;;7.90;99.90;;;7.78;100.00;99926.91;5249777;28;20036;-46
2024/01/06 06:10:07;;;;;;;15.50;5.30;;;7.90;99.90;;;7.68;100.00;99927.44;5244885;28;20060;-47
2024/01/06 06:12:41;;;;;;;13.73;5.20;;;7.90;99.90;;;7.63;100.00;99942.00;5255607;28;20044;-46
2024/01/06 06:15:13;;;;;;;16.63;5.88;;;7.80;99.90;;;7.60;100.00;99950.53;5258113;28;20041;-47
2024/01/06 06:17:46;;;;;;;18.98;5.80;;;7.80;99.90;;;7.53;100.00;99953.78;5249105;28;20437;-47
2024/01/06 06:20:19;;;;;;;14.93;4.97;;;7.70;99.90;;;7.39;100.00;99955.03;5256892;28;20036;-47
2024/01/06 06:22:51;;;;;;;15.57;5.18;;;7.60;99.90;;;7.32;100.00;99964.31;5256742;28;20109;-48
2024/01/06 06:25:24;;;;;;;15.85;5.03;;;7.60;99.90;;;7.27;100.00;99960.66;5255628;28;20069;-47
2024/01/06 06:27:57;;;;;;;16.67;4.78;;;7.50;99.90;;;7.23;100.00;99976.91;5253167;28;20055;-46
2024/01/06 06:30:30;;;;;;;11.65;4.72;;;7.50;99.90;;;7.25;100.00;99984.78;5253412;28;20036;-48
2024/01/06 06:33:02;;;;;;;12.15;4.30;;;7.40;99.90;;;7.21;100.00;99981.19;5244116;28;20045;-47
2024/01/06 06:35:34;;;;;;;17.77;5.57;;;7.50;99.90;;;7.19;100.00;99987.16;5255393;28;20039;-48
2024/01/06 06:38:07;;;;;;;11.48;4.13;;;7.40;99.90;;;7.13;100.00;99982.63;5249556;28;20563;-47
2024/01/06 06:40:40;;;;;;;14.07;4.82;;;7.40;99.90;;;7.10;100.00;99998.06;5251132;28;20139;-47
2024/01/06 06:43:13;;;;;;;13.88;5.03;;;7.30;99.90;;;7.08;100.00;99994.53;5256670;28;20512;-48
2024/01/06 06:45:46;;;;;;;12.10;4.78;;;7.30;99.90;;;7.03;100.00;100001.25;5247811;28;20506;-48
2024/01/06 06:48:18;;;;;;;14.93;4.85;;;7.30;99.90;;;6.99;100.00;100004.56;5248330;28;20044;-46
2024/01/06 06:50:51;;;;;;;10.77;4.60;;;7.30;99.90;;;6.96;100.00;100012.22;5250942;28;20398;-48
2024/01/06 06:53:23;;;;;;;16.45;3.78;;;7.30;99.90;;;6.93;100.00;100025.06;5249887;28;20063;-46
2024/01/06 06:55:55;;;;;;;8.43;3.80;;;7.20;99.90;;;6.92;100.00;100024.19;5256753;28;20040;-47
2024/01/06 06:58:29;;;;;;;8.68;3.88;;;7.20;99.90;;;6.92;100.00;100029.38;5252846;28;20525;-48
2024/01/06 07:01:02;;;;;;;11.68;4.35;;;7.10;99.90;;;6.90;100.00;100030.13;5258694;28;20516;-47
2024/01/06 07:03:35;;;;;;;8.90;3.70;;;7.10;99.90;;;6.87;100.00;100040.41;5264209;28;20044;-47
2024/01/06 07:06:07;;;;;;;8.57;3.67;;;7.10;99.90;;;6.86;100.00;100049.88;5257467;28;20048;-46
2024/01/06 07:08:41;;;;;;;10.02;3.75;;;7.10;99.90;;;6.87;100.00;100050.75;5257144;28;20048;-47
2024/01/06 07:11:15;;;;;;;7.30;3.22;;;7.10;99.90;;;6.81;100.00;100059.19;5257759;28;20039;-47
2024/01/06 07:13:48;;;;;;;12.90;4.28;;;7.10;99.90;;;6.83;100.00;100057.50;5252346;28;20044;-47
2024/01/06 07:16:21;;;;;;;11.90;5.22;;;7.10;99.90;;;6.83;100.00;100065.28;5249584;28;20063;-47
2024/01/06 07:18:53;;;;;;;11.07;5.40;;;7.00;99.90;;;6.87;100.00;100071.47;5248521;28;20045;-46
2024/01/06 07:21:25;;;;;;;16.17;4.88;;;7.00;99.90;;;6.88;100.00;100068.06;5252216;28;20040;-47
2024/01/06 07:23:58;;;;;;;17.30;5.47;;;7.10;99.90;;;6.87;100.00;100071.47;5245505;28;20045;-46
2024/01/06 07:26:30;;;;;;;15.90;5.47;;;7.10;99.90;;;6.86;100.00;100074.91;5257618;28;20054;-48
2024/01/06 07:29:04;;;;;;;14.40;4.90;;;7.00;99.90;;;6.85;100.00;100073.13;5257853;28;21236;-47
2024/01/06 07:31:36;;;;;;;12.82;4.50;;;7.00;99.90;;;6.85;100.00;100083.50;5248053;28;20056;-47
2024/01/06 07:34:09;;;;;;;8.68;3.95;;;7.00;99.90;;;6.86;100.00;100087.84;5252081;28;20166;-46
2024/01/06 07:36:41;;;;;;;11.20;3.85;;;7.00;99.90;;;6.87;100.00;100097.38;5247795;28;20071;-47
2024/01/06 07:39:13;;;;;;;17.08;5.05;;;6.90;99.90;;;6.88;100.00;100096.56;5247466;28;20047;-47
2024/01/06 07:41:46;;;;;;;13.32;4.72;;;7.00;99.90;;;6.92;100.00;100101.94;5256366;28;20051;-46
2024/01/06 07:44:24;;;;;;;12.57;5.18;;;7.00;99.90;;;6.95;100.00;100108.91;5255098;28;20040;-47
2024/01/06 07:46:56;;;;;;;11.95;3.53;;;7.00;99.90;;;6.94;100.00;100114.94;5256767;28;20079;-46
2024/01/06 07:49:29;;;;;;;15.95;5.03;;;7.00;99.90;;;6.96;100.00;100118.44;5244454;28;20058;-47
2024/01/06 07:52:01;;;;;;;11.95;3.72;;;7.10;99.90;;;6.95;100.00;100117.56;5248262;28;20064;-47
2024/01/06 07:54:34;;;;;;;11.25;4.78;;;7.10;99.90;;;6.96;100.00;100128.81;5254812;28;20044;-47
2024/01/06 07:57:06;;;;;;;15.45;4.63;;;7.00;99.90;;;6.94;100.00;100133.94;5247058;28;20052;-46
2024/01/06 07:59:40;;;;;;;12.85;4.68;;;7.00;99.90;;;6.89;100.00;100132.00;5255791;28;20040;-46
2024/01/06 08:02:12;;;;;;;12.05;5.00;;;7.00;99.90;;;6.89;100.00;100139.78;5251765;28;20058;-47
2024/01/06 08:04:45;;;;;;;10.88;4.57;;;7.00;99.90;;;6.89;100.00;100140.66;5255203;28;20052;-47
2024/01/06 08:07:17;;;;;;;11.95;3.88;;;7.00;99.90;;;6.90;100.00;100144.13;5241740;28;20039;-47
2024/01/06 08:09:49;;;;;;;7.88;3.28;;;7.00;99.90;;;6.90;100.00;100144.13;5251930;28;20052;-47
2024/01/06 08:12:22;;;;;;;7.78;3.40;;;7.00;99.90;;;6.90;100.00;100164.84;5249118;28;20051;-47
2024/01/06 08:14:56;;;;;;;8.05;3.33;;;7.00;99.90;;;6.90;100.00;100164.84;5253459;28;20049;-46
2024/01/06 08:17:28;;;;;;;11.23;3.00;;;7.00;99.90;;;6.90;100.00;100175.22;5249730;28;20052;-46
2024/01/06 08:20:01;;;;;;;9.57;3.53;;;7.00;99.90;;;6.88;100.00;100177.75;5253829;28;20064;-48
2024/01/06 08:22:33;;;;;;;10.60;3.50;;;7.00;99.90;;;6.89;100.00;100181.22;5254535;28;20391;-46
2024/01/06 08:25:07;;;;;;;10.65;3.45;;;7.00;99.90;;;6.88;100.00;100188.13;5245076;28;20048;-45
2024/01/06 08:27:39;;;;;;;13.77;4.65;;;7.00;99.90;;;6.89;100.00;100194.19;5252688;28;20040;-47
2024/01/06 08:30:13;;;;;;;11.43;4.15;;;7.00;99.90;;;6.91;100.00;100195.13;5250667;28;20061;-46
2024/01/06 08:32:46;;;;;;;11.80;3.92;;;7.00;99.90;;;6.93;100.00;100194.38;5256143;28;20105;-47
2024/01/06 08:35:19;;;;;;;11.60;4.18;;;7.10;99.90;;;6.97;100.00;100197.94;5248831;28;20052;-47
2024/01/06 08:37:51;;;;;;;14.77;4.63;;;7.10;99.90;;;6.96;100.00;100202.25;5257928;28;20422;-47
2024/01/06 08:40:24;;;;;;;12.48;4.07;;;7.10;99.90;;;6.93;100.00;100204.75;5252161;28;20056;-47
2024/01/06 08:42:56;;;;;;;11.38;3.65;;;7.10;99.90;;;6.90;100.00;100196.81;5250769;28;20456;-47
2024/01/06 08:45:30;;;;;;;12.75;4.05;;;7.10;99.90;;;6.88;100.00;100213.16;5252780;28;20045;-47
2024/01/06 08:48:02;;;;;;;6.57;2.75;;;7.10;99.90;;;7.44;100.00;100212.78;5257331;28;20052;-46
2024/01/06 08:50:35;;;;;;;13.52;3.90;;;7.40;99.90;;;7.83;100.00;100212.50;5258488;28;20043;-47
2024/01/06 08:53:07;;;;;;;12.35;4.22;;;7.80;99.90;;;7.66;100.00;100210.97;5248266;28;20093;-47
2024/01/06 08:55:40;;;;;;;10.10;3.70;;;7.80;99.90;;;7.47;100.00;100217.19;5255432;28;20526;-47
2024/01/06 08:58:12;;;;;;;10.73;3.05;;;7.70;99.90;;;7.37;100.00;100220.25;5257572;28;20048;-47
2024/01/06 09:00:46;;;;;;;12.35;4.28;;;7.60;99.90;;;7.30;100.00;100225.22;5248974;28;20410;-48
2024/01/06 09:03:18;;;;;;;12.20;3.97;;;7.50;99.90;;;7.26;100.00;100233.69;5251265;28;20079;-47
2024/01/06 09:05:50;;;;;;;11.30;3.88;;;7.50;99.90;;;7.22;100.00;100236.97;5246228;28;20044;-47
2024/01/06 09:08:23;;;;;;;10.10;3.58;;;7.40;99.90;;;7.20;100.00;100242.94;5246474;28;20044;-46
2024/01/06 09:10:57;;;;;;;9.95;3.13;;;7.40;99.90;;;7.13;100.00;100239.22;5250007;28;20078;-46
2024/01/06 09:13:29;;;;;;;9.70;3.85;;;7.30;99.90;;;7.10;100.00;100238.19;5252981;28;20840;-46
2024/01/06 09:16:03;;;;;;;8.15;2.70;;;7.30;99.90;;;7.06;100.00;100239.81;5260677;28;20044;-47
2024/01/06 09:18:35;;;;;;;16.42;4.47;;;7.30;99.90;;;7.01;100.00;100256.88;5259505;28;20045;-47
2024/01/06 09:21:08;;;;;;;13.23;3.40;;;7.20;99.90;;;6.98;100.00;100256.75;5251331;28;20063;-47
2024/01/06 09:23:40;;;;;;;10.63;3.80;;;7.10;99.90;;;6.99;100.00;100255.94;5252504;28;20578;-46
2024/01/06 09:26:13;;;;;;;10.55;3.22;;;7.10;99.90;;;6.96;100.00;100259.25;5255647;28;20048;-47
2024/01/06 09:28:45;;;;;;;6.75;3.00;;;7.20;99.90;;;6.92;100.00;100264.28;5253274;28;20042;-47
2024/01/06 09:31:19;;;;;;;8.93;3.50;;;7.10;99.90;;;6.92;100.00;100266.88;5249477;28;20044;-47
2024/01/06 09:33:51;;;;;;;11.68;4.97;;;7.10;99.90;;;6.90;100.00;100278.84;5247643;28;20101;-47
2024/01/06 09:36:23;;;;;;;11.40;4.05;;;7.10;99.90;;;6.91;100.00;100278.94;5259778;28;20051;-46
2024/01/06 09:38:56;;;;;;;11.80;3.53;;;7.10;99.90;;;6.89;100.00;100282.28;5250623;28;20044;-47
2024/01/06 09:41:28;;;;;;;12.02;4.00;;;7.10;99.90;;;6.90;100.00;100279.72;5253883;28;20395;-48
2024/01/06 09:44:01;;;;;;;9.40;3.13;;;7.10;99.90;;;6.93;100.00;100294.53;5255006;28;20506;-47
2024/01/06 09:46:37;;;;;;;9.23;3.25;;;7.10;99.90;;;6.90;100.00;100295.28;5253742;28;20045;-46
2024/01/06 09:49:10;;;;;;;11.32;4.00;;;7.10;99.90;;;6.89;100.00;100292.63;5257873;28;20048;-47
2024/01/06 09:51:42;;;;;;;12.07;3.72;;;7.10;99.90;;;6.90;100.00;100299.59;5247224;28;20036;-47
2024/01/06 09:54:15;;;;;;;12.10;3.58;;;7.10;99.90;;;6.91;100.00;100301.34;5259260;28;20464;-46
2024/01/06 09:56:48;;;;;;;12.60;4.07;;;7.10;99.90;;;6.94;100.00;100304.09;5245592;28;20503;-47
2024/01/06 09:59:21;;;;;;;9.20;3.20;;;7.10;99.90;;;6.93;100.00;100299.72;5251072;28;20146;-46
2024/01/06 10:01:56;;;;;;;11.80;4.38;;;7.10;99.90;;;6.91;100.00;100302.25;5248458;28;20033;-47
2024/01/06 10:04:28;;;;;;;7.50;3.53;;;7.10;99.90;;;6.90;100.00;100307.34;5258500;28;20048;-47
2024/01/06 10:07:01;;;;;;;11.05;3.40;;;7.10;99.90;;;6.86;100.00;100308.06;5265020;28;20044;-46
2024/01/06 10:09:33;;;;;;;9.32;3.53;;;7.00;99.90;;;6.80;100.00;100313.88;5242651;28;20052;-47
2024/01/06 10:12:07;;;;;;;10.07;3.15;;;6.90;99.90;;;6.81;100.00;100318.22;5258064;28;20048;-46
2024/01/06 10:14:39;;;;;;;11.32;3.40;;;6.90;99.90;;;6.79;100.00;100319.88;5249659;28;20048;-47
2024/01/06 10:17:14;;;;;;;10.70;3.60;;;6.90;99.90;;;6.77;100.00;100319.78;5256509;28;20040;-47
2024/01/06 10:19:47;;;;;;;11.60;3.72;;;6.90;99.90;;;6.78;100.00;100321.59;5250476;28;20048;-46
2024/01/06 10:22:20;;;;;;;11.55;4.38;;;6.90;99.90;;;6.80;100.00;100324.22;5255023;28;20044;-47
2024/01/06 10:24:52;;;;;;;12.88;4.43;;;6.90;99.90;;;6.78;100.00;100329.34;5254761;28;20048;-46
2024/01/06 10:27:24;;;;;;;13.82;4.53;;;6.90;99.90;;;6.76;100.00;100322.31;5244976;28;20044;-46
2024/01/06 10:29:57;;;;;;;9.68;3.35;;;6.90;99.90;;;6.76;100.00;100323.22;5252696;28;20423;-46
2024/01/06 10:32:33;;;;;;;12.48;4.63;;;6.90;99.90;;;6.79;100.00;100320.75;5263551;28;20036;-46
2024/01/06 10:35:06;;;;;;;8.75;3.70;;;7.00;99.90;;;6.81;100.00;100331.19;5245565;28;20052;-46
2024/01/06 10:37:40;;;;;;;10.00;4.60;;;6.90;99.90;;;6.80;100.00;100332.88;5253525;28;20579;-47
2024/01/06 10:40:15;;;;;;;10.68;4.30;;;7.00;99.90;;;6.82;100.00;100334.66;5253686;28;20040;-46
2024/01/06 10:42:48;;;;;;;10.88;3.92;;;7.00;99.90;;;6.82;100.00;100332.06;5255440;28;20036;-46